Time;durP1;ratioP1;P1;durP2;ratioP2;P2;SDS_P1;SDS_P2;PMS_P1;PMS_P2;Temp;Humidity;BMP_temperature;BMP_pressure;BME280_temperature;BME280_humidity;BME280_pressure;Samples;Min_cycle;Max_cycle;Signal;HPM_P1;HPM_P2
2022/10/06 00:01:47;;;;;;;14.77;11.87;;;9.50;99.90;;;;;;5073690;28;20221;-76
2022/10/06 00:04:15;;;;;;;12.80;10.40;;;9.40;99.90;;;;;;5073970;28;20201;-76
2022/10/06 00:06:42;;;;;;;14.80;12.40;;;9.40;99.90;;;;;;5073935;28;20197;-76
2022/10/06 00:09:09;;;;;;;13.53;11.23;;;9.50;99.90;;;;;;5073817;28;20251;-76
2022/10/06 00:11:36;;;;;;;13.23;10.40;;;9.40;99.90;;;;;;5073753;28;20208;-77
2022/10/06 00:14:03;;;;;;;14.20;11.03;;;9.40;99.90;;;;;;5073543;28;20720;-77
2022/10/06 00:16:30;;;;;;;14.23;11.17;;;9.40;99.90;;;;;;5073813;28;20197;-77
2022/10/06 00:18:57;;;;;;;11.83;10.30;;;9.40;99.90;;;;;;5073812;28;20197;-77
2022/10/06 00:21:25;;;;;;;12.93;10.53;;;9.30;99.90;;;;;;5073593;28;20227;-76
2022/10/06 00:23:52;;;;;;;12.27;10.50;;;9.30;99.90;;;;;;5073563;28;20258;-77
2022/10/06 00:26:18;;;;;;;12.03;10.57;;;9.40;99.90;;;;;;5073499;28;20197;-77
2022/10/06 00:28:47;;;;;;;15.03;11.27;;;9.30;99.90;;;;;;5073363;28;20205;-76
2022/10/06 00:31:13;;;;;;;12.07;10.83;;;9.30;99.90;;;;;;5073508;28;20197;-77
2022/10/06 00:33:40;;;;;;;15.33;12.17;;;9.30;99.90;;;;;;5073480;28;20201;-77
2022/10/06 00:36:07;;;;;;;13.17;11.67;;;9.40;99.90;;;;;;5073243;28;20196;-77
2022/10/06 00:38:35;;;;;;;15.03;12.17;;;9.30;99.90;;;;;;5073231;28;20194;-77
2022/10/06 00:41:02;;;;;;;13.43;11.30;;;9.30;99.90;;;;;;5072564;28;20213;-76
2022/10/06 00:43:50;;;;;;;14.60;11.30;;;9.30;99.90;;;;;;5073031;28;20201;-77
2022/10/06 00:46:28;;;;;;;14.10;11.60;;;9.30;99.90;;;;;;5075650;28;20204;-77
2022/10/06 00:48:59;;;;;;;15.23;11.83;;;9.30;99.90;;;;;;5074355;28;20655;-77
2022/10/06 00:51:27;;;;;;;15.70;13.10;;;9.30;99.90;;;;;;5073062;28;20204;-76
2022/10/06 00:53:56;;;;;;;19.83;12.90;;;9.30;99.90;;;;;;5073026;28;20258;-77
2022/10/06 00:56:23;;;;;;;16.20;12.67;;;9.20;99.90;;;;;;5072895;28;20204;-77
2022/10/06 00:58:50;;;;;;;18.67;12.63;;;9.20;99.90;;;;;;5073185;28;20205;-77
2022/10/06 01:01:17;;;;;;;14.67;11.77;;;9.20;99.90;;;;;;5073555;28;20192;-77
2022/10/06 01:03:48;;;;;;;18.17;11.43;;;9.20;99.90;;;;;;5072942;28;20250;-77
2022/10/06 01:06:15;;;;;;;15.17;11.27;;;9.20;99.90;;;;;;5072835;28;20200;-77
2022/10/06 01:08:42;;;;;;;12.43;10.13;;;9.20;99.90;;;;;;5073496;28;20193;-77
2022/10/06 01:11:13;;;;;;;12.07;10.27;;;9.20;99.90;;;;;;5073109;28;20212;-77
2022/10/06 01:13:42;;;;;;;13.33;11.07;;;9.20;99.90;;;;;;5072713;28;20316;-77
2022/10/06 01:16:15;;;;;;;15.83;11.00;;;9.20;99.90;;;;;;5072720;28;20227;-78
2022/10/06 01:18:44;;;;;;;16.37;11.63;;;9.10;99.90;;;;;;5072652;28;20201;-77
2022/10/06 01:21:18;;;;;;;16.70;11.77;;;9.20;99.90;;;;;;5072659;28;20664;-77
2022/10/06 01:23:46;;;;;;;15.97;11.47;;;9.20;99.90;;;;;;5072675;28;20656;-76
2022/10/06 01:26:15;;;;;;;16.67;11.90;;;9.10;99.90;;;;;;5072710;28;20197;-77
2022/10/06 01:28:41;;;;;;;15.57;11.60;;;9.10;99.90;;;;;;5072664;28;20253;-77
2022/10/06 01:31:09;;;;;;;18.70;11.03;;;9.20;99.90;;;;;;5072510;28;20197;-77
2022/10/06 01:33:35;;;;;;;14.70;10.83;;;9.10;99.90;;;;;;5072824;28;20205;-77
2022/10/06 01:36:03;;;;;;;13.07;10.47;;;9.20;99.90;;;;;;5072748;28;20666;-77
2022/10/06 01:38:30;;;;;;;13.20;10.63;;;9.10;99.90;;;;;;5072596;28;20220;-77
2022/10/06 01:40:58;;;;;;;21.57;12.50;;;9.20;99.90;;;;;;5072654;28;20271;-77
2022/10/06 01:43:24;;;;;;;16.93;10.93;;;9.30;99.90;;;;;;5072398;28;20580;-77
2022/10/06 01:45:55;;;;;;;16.70;11.00;;;9.30;99.90;;;;;;5072490;28;20197;-77
2022/10/06 01:48:22;;;;;;;15.60;10.87;;;9.20;99.90;;;;;;5072706;28;20197;-77
2022/10/06 01:50:49;;;;;;;16.17;10.77;;;9.30;99.90;;;;;;5073008;28;20201;-77
2022/10/06 01:53:16;;;;;;;14.93;9.60;;;9.30;99.90;;;;;;5076443;28;20623;-76
2022/10/06 01:55:43;;;;;;;11.07;9.87;;;9.30;99.90;;;;;;5076375;28;20197;-77
2022/10/06 01:58:11;;;;;;;11.53;9.33;;;9.40;99.90;;;;;;5076242;28;20197;-77
2022/10/06 02:00:38;;;;;;;10.97;9.07;;;9.40;99.90;;;;;;5076434;28;20197;-77
2022/10/06 02:03:04;;;;;;;12.30;9.53;;;9.60;99.90;;;;;;5076131;28;20220;-78
2022/10/06 02:05:31;;;;;;;12.97;9.83;;;9.70;99.90;;;;;;5076167;28;20227;-77
2022/10/06 02:07:58;;;;;;;11.60;9.53;;;9.70;99.90;;;;;;5075977;28;20193;-77
2022/10/06 02:10:24;;;;;;;10.23;9.07;;;9.60;99.90;;;;;;5076154;28;20234;-77
2022/10/06 02:12:52;;;;;;;11.40;8.80;;;9.80;99.90;;;;;;5075678;28;20201;-76
2022/10/06 02:15:20;;;;;;;12.73;9.13;;;10.00;99.90;;;;;;5075965;28;20722;-77
2022/10/06 02:17:47;;;;;;;12.10;9.40;;;10.10;99.90;;;;;;5076090;28;20250;-77
2022/10/06 02:20:14;;;;;;;11.63;8.80;;;10.10;99.90;;;;;;5076022;28;20254;-77
2022/10/06 02:22:42;;;;;;;9.03;8.10;;;10.20;99.90;;;;;;5075725;28;20691;-77
2022/10/06 02:25:09;;;;;;;8.83;7.70;;;10.40;99.90;;;;;;5075768;28;20197;-77
2022/10/06 02:27:36;;;;;;;10.17;7.70;;;10.50;99.90;;;;;;5075723;28;20197;-77
2022/10/06 02:30:04;;;;;;;10.47;7.50;;;10.50;99.90;;;;;;5075858;28;20274;-77
2022/10/06 02:32:34;;;;;;;10.93;7.90;;;10.50;99.90;;;;;;5075606;28;20687;-77
2022/10/06 02:35:02;;;;;;;10.90;7.63;;;10.60;99.90;;;;;;5075658;28;20243;-77
2022/10/06 02:37:29;;;;;;;8.80;7.17;;;10.60;99.90;;;;;;5075553;28;20511;-77
2022/10/06 02:39:56;;;;;;;10.63;8.40;;;10.50;99.90;;;;;;5075443;28;20201;-77
2022/10/06 02:42:22;;;;;;;10.43;7.67;;;10.30;99.90;;;;;;5075387;28;20553;-77
2022/10/06 02:44:51;;;;;;;8.63;6.97;;;10.10;99.90;;;;;;5075630;28;20248;-77
2022/10/06 02:47:17;;;;;;;12.77;8.00;;;10.00;99.90;;;;;;5075350;28;20649;-77
2022/10/06 02:49:45;;;;;;;8.77;7.30;;;10.00;99.90;;;;;;5075388;28;20201;-77
2022/10/06 02:52:12;;;;;;;8.83;7.80;;;10.00;99.90;;;;;;5075370;28;20200;-77
2022/10/06 02:54:39;;;;;;;11.23;7.63;;;10.00;99.90;;;;;;5075103;28;20200;-77
2022/10/06 02:57:06;;;;;;;9.63;7.50;;;10.00;99.90;;;;;;5075284;28;20244;-77
2022/10/06 02:59:33;;;;;;;10.70;7.67;;;10.00;99.90;;;;;;5075401;28;20201;-77
2022/10/06 03:02:00;;;;;;;11.57;7.90;;;10.10;99.90;;;;;;5075110;28;20284;-77
2022/10/06 03:04:26;;;;;;;8.23;7.23;;;10.10;99.90;;;;;;5074589;28;20197;-77
2022/10/06 03:06:55;;;;;;;9.93;7.30;;;10.10;99.90;;;;;;5074970;28;20197;-77
2022/10/06 03:09:21;;;;;;;10.23;7.67;;;10.10;99.90;;;;;;5074919;28;20564;-77
2022/10/06 03:11:48;;;;;;;11.83;8.00;;;10.10;99.90;;;;;;5075127;28;20201;-77
2022/10/06 03:14:15;;;;;;;9.10;7.10;;;10.20;99.90;;;;;;5074797;28;20632;-77
2022/10/06 03:16:43;;;;;;;17.43;8.10;;;10.30;99.90;;;;;;5074894;28;20207;-77
2022/10/06 03:19:10;;;;;;;10.00;7.00;;;10.20;99.90;;;;;;5074777;28;20201;-77
2022/10/06 03:21:39;;;;;;;9.83;6.70;;;10.30;99.90;;;;;;5074692;28;20197;-77
2022/10/06 03:24:07;;;;;;;8.67;6.87;;;10.30;99.90;;;;;;5074550;28;20232;-77
2022/10/06 03:26:36;;;;;;;7.23;6.53;;;10.30;99.90;;;;;;5074762;28;20274;-77
2022/10/06 03:29:02;;;;;;;10.00;7.30;;;10.30;99.90;;;;;;5074639;28;20207;-77
2022/10/06 03:31:30;;;;;;;10.77;7.37;;;10.40;99.90;;;;;;5074536;28;20631;-77
2022/10/06 03:33:57;;;;;;;8.37;6.67;;;10.40;99.90;;;;;;5074523;28;20208;-77
2022/10/06 03:36:25;;;;;;;10.23;6.70;;;10.50;99.90;;;;;;5074373;28;20197;-77
2022/10/06 03:38:52;;;;;;;7.57;6.40;;;10.60;99.90;;;;;;5074535;28;20205;-77
2022/10/06 03:41:22;;;;;;;7.90;6.00;;;10.70;99.90;;;;;;5074468;28;20263;-77
2022/10/06 03:43:50;;;;;;;9.93;6.43;;;10.80;99.90;;;;;;5074347;28;20685;-77
2022/10/06 03:46:19;;;;;;;8.70;6.40;;;10.90;99.90;;;;;;5074313;28;20215;-76
2022/10/06 03:48:47;;;;;;;7.10;5.87;;;11.00;99.90;;;;;;5074151;28;20197;-76
2022/10/06 03:51:16;;;;;;;7.77;5.80;;;11.00;99.90;;;;;;5074285;28;20197;-76
2022/10/06 03:53:44;;;;;;;9.27;6.13;;;11.00;99.90;;;;;;5074231;28;20607;-76
2022/10/06 03:56:13;;;;;;;7.83;6.13;;;11.10;99.90;;;;;;5073973;28;20197;-76
2022/10/06 03:58:42;;;;;;;8.17;6.00;;;11.10;99.90;;;;;;5073970;28;20197;-76
2022/10/06 04:01:11;;;;;;;6.90;5.60;;;11.10;99.90;;;;;;5073880;28;20193;-76
2022/10/06 04:03:37;;;;;;;8.50;5.47;;;11.20;99.90;;;;;;5073996;28;20228;-76
2022/10/06 04:06:06;;;;;;;9.30;6.00;;;11.20;99.90;;;;;;5074085;28;20638;-77
2022/10/06 04:08:35;;;;;;;7.00;5.60;;;11.20;99.90;;;;;;5073879;28;20205;-76
2022/10/06 04:11:06;;;;;;;6.37;5.77;;;11.20;99.90;;;;;;5073611;28;20595;-76
2022/10/06 04:13:33;;;;;;;13.00;8.00;;;11.10;99.90;;;;;;5073467;28;20290;-76
2022/10/06 04:16:09;;;;;;;15.20;9.10;;;11.20;99.90;;;;;;5072723;28;20295;-76
2022/10/06 04:18:37;;;;;;;11.97;7.50;;;11.20;99.90;;;;;;5073782;28;20231;-76
2022/10/06 04:21:03;;;;;;;11.70;7.90;;;11.20;99.90;;;;;;5073562;28;20228;-77
2022/10/06 04:23:30;;;;;;;7.23;6.13;;;11.20;99.90;;;;;;5073460;28;20588;-78
2022/10/06 04:25:59;;;;;;;6.00;5.37;;;11.10;99.90;;;;;;5073533;28;20197;-77
2022/10/06 04:28:25;;;;;;;6.33;5.43;;;11.00;99.90;;;;;;5073411;28;20216;-77
2022/10/06 04:30:56;;;;;;;11.33;5.50;;;10.90;99.90;;;;;;5073524;28;20226;-77
2022/10/06 04:33:24;;;;;;;8.47;5.93;;;11.00;99.90;;;;;;5073457;28;20205;-77
2022/10/06 04:35:57;;;;;;;10.40;7.13;;;11.10;99.90;;;;;;5073318;28;20204;-77
2022/10/06 04:38:24;;;;;;;9.30;7.93;;;11.00;99.90;;;;;;5073137;28;20284;-77
2022/10/06 04:40:50;;;;;;;13.03;8.77;;;10.90;99.90;;;;;;5073036;28;20254;-77
2022/10/06 04:43:17;;;;;;;9.90;7.67;;;10.80;99.90;;;;;;5073328;28;20285;-77
2022/10/06 04:45:44;;;;;;;15.03;8.63;;;10.70;99.90;;;;;;5073258;28;20202;-77
2022/10/06 04:48:10;;;;;;;13.30;8.30;;;10.60;99.90;;;;;;5073218;28;20653;-77
2022/10/06 04:50:38;;;;;;;11.47;8.87;;;10.50;99.90;;;;;;5073085;28;20668;-77
2022/10/06 04:53:05;;;;;;;10.97;8.77;;;10.40;99.90;;;;;;5073031;28;20545;-77
2022/10/06 04:55:32;;;;;;;11.10;8.37;;;10.30;99.90;;;;;;5073005;28;20529;-77
2022/10/06 04:57:59;;;;;;;10.27;8.77;;;10.20;99.90;;;;;;5073149;28;20296;-78
2022/10/06 05:00:25;;;;;;;12.33;9.07;;;10.10;99.90;;;;;;5073253;28;20197;-77
2022/10/06 05:02:54;;;;;;;10.37;8.23;;;10.00;99.90;;;;;;5073303;28;20277;-77
2022/10/06 05:05:21;;;;;;;9.17;8.17;;;10.20;99.90;;;;;;5073254;28;20201;-77
2022/10/06 05:07:49;;;;;;;11.10;8.57;;;10.40;99.90;;;;;;5072717;28;20201;-77
2022/10/06 05:10:16;;;;;;;16.60;8.80;;;10.60;99.90;;;;;;5072914;28;20274;-77
2022/10/06 05:12:42;;;;;;;13.77;8.23;;;10.70;99.90;;;;;;5072770;28;20571;-76
2022/10/06 05:15:10;;;;;;;12.37;7.97;;;10.90;99.90;;;;;;5072873;28;20193;-76
2022/10/06 05:17:37;;;;;;;9.30;7.67;;;11.10;99.90;;;;;;5072827;28;20193;-77
2022/10/06 05:20:04;;;;;;;10.50;7.40;;;11.10;99.90;;;;;;5072682;28;20204;-77
2022/10/06 05:22:30;;;;;;;8.83;7.53;;;11.20;99.90;;;;;;5072429;28;20675;-76
2022/10/06 05:24:58;;;;;;;10.67;6.37;;;11.30;99.90;;;;;;5072580;28;20201;-77
2022/10/06 05:27:25;;;;;;;9.87;6.53;;;11.40;99.90;;;;;;5072214;28;20227;-77
2022/10/06 05:29:52;;;;;;;8.00;5.70;;;11.50;99.90;;;;;;5072625;28;20197;-77
2022/10/06 05:32:18;;;;;;;9.67;6.23;;;11.60;99.90;;;;;;5072474;28;20201;-77
2022/10/06 05:34:45;;;;;;;8.17;6.20;;;11.70;99.90;;;;;;5072567;28;20326;-77
2022/10/06 05:37:12;;;;;;;9.83;6.60;;;11.80;99.90;;;;;;5072066;28;20232;-77
2022/10/06 05:39:38;;;;;;;9.47;7.03;;;11.80;99.90;;;;;;5072525;28;20196;-77
2022/10/06 05:42:06;;;;;;;10.60;6.53;;;11.80;99.90;;;;;;5072462;28;20258;-77
2022/10/06 05:44:33;;;;;;;8.00;6.47;;;11.80;99.90;;;;;;5072069;28;20704;-77
2022/10/06 05:46:59;;;;;;;10.23;7.00;;;11.80;99.90;;;;;;5072356;28;20197;-77
2022/10/06 05:49:26;;;;;;;6.97;5.87;;;11.80;99.90;;;;;;5072135;28;20223;-76
2022/10/06 05:51:53;;;;;;;11.70;8.00;;;11.80;99.90;;;;;;5072407;28;20200;-77
2022/10/06 05:54:19;;;;;;;10.57;6.97;;;11.90;99.90;;;;;;5072534;28;20247;-77
2022/10/06 05:56:46;;;;;;;13.07;8.33;;;11.90;99.90;;;;;;5072272;28;20207;-77
2022/10/06 05:59:14;;;;;;;10.40;7.77;;;12.00;99.90;;;;;;5072167;28;20231;-77
2022/10/06 06:01:43;;;;;;;9.30;7.37;;;12.10;99.90;;;;;;5072020;28;20202;-77
2022/10/06 06:04:11;;;;;;;10.03;8.10;;;12.10;99.90;;;;;;5072023;28;20221;-76
2022/10/06 06:06:39;;;;;;;12.60;7.90;;;12.20;99.90;;;;;;5072391;28;20205;-77
2022/10/06 06:09:07;;;;;;;13.97;8.30;;;12.40;99.90;;;;;;5072191;28;20193;-77
2022/10/06 06:11:36;;;;;;;11.93;7.10;;;12.50;99.90;;;;;;5072195;28;20197;-76
2022/10/06 06:14:04;;;;;;;10.37;6.70;;;12.60;99.90;;;;;;5071841;28;20302;-77
2022/10/06 06:16:32;;;;;;;7.90;6.40;;;12.80;99.90;;;;;;5072017;28;20201;-77
2022/10/06 06:19:00;;;;;;;9.80;6.43;;;13.00;99.90;;;;;;5072072;28;20261;-77
2022/10/06 06:21:27;;;;;;;11.00;6.23;;;13.10;99.90;;;;;;5072111;28;20201;-77
2022/10/06 06:23:54;;;;;;;8.00;6.80;;;13.10;99.90;;;;;;5072057;28;20224;-77
2022/10/06 06:26:23;;;;;;;9.67;6.83;;;13.30;99.90;;;;;;5071982;28;20201;-77
2022/10/06 06:28:50;;;;;;;10.17;6.13;;;13.30;99.90;;;;;;5071924;28;20201;-77
2022/10/06 06:31:19;;;;;;;8.07;6.43;;;13.40;99.90;;;;;;5071739;28;20735;-77
2022/10/06 06:33:48;;;;;;;11.17;6.40;;;13.40;99.90;;;;;;5071866;28;20197;-77
2022/10/06 06:36:17;;;;;;;9.23;6.10;;;13.50;99.90;;;;;;5071791;28;20201;-77
2022/10/06 06:38:46;;;;;;;12.93;6.20;;;13.50;99.90;;;;;;5073539;28;20231;-76
2022/10/06 06:41:14;;;;;;;8.37;6.00;;;13.60;99.90;;;;;;5075104;28;20243;-77
2022/10/06 06:43:41;;;;;;;8.67;5.40;;;13.70;99.90;;;;;;5074956;28;20228;-77
2022/10/06 06:46:08;;;;;;;9.67;5.70;;;13.90;99.90;;;;;;5075612;28;20288;-76
2022/10/06 06:48:36;;;;;;;8.33;5.40;;;14.00;99.90;;;;;;5075745;28;20201;-76
2022/10/06 06:51:06;;;;;;;11.90;5.90;;;14.00;99.90;;;;;;5075153;28;20212;-76
2022/10/06 06:53:33;;;;;;;7.93;6.07;;;14.00;99.90;;;;;;5073729;28;20216;-76
2022/10/06 06:56:00;;;;;;;11.10;6.50;;;14.00;99.90;;;;;;5075272;28;20204;-76
2022/10/06 06:58:27;;;;;;;10.83;6.70;;;14.10;99.90;;;;;;5075223;28;20288;-77
2022/10/06 07:00:53;;;;;;;11.37;7.53;;;14.00;99.90;;;;;;5075332;28;20200;-76
2022/10/06 07:03:21;;;;;;;13.00;7.47;;;14.00;99.90;;;;;;5075250;28;20200;-76
2022/10/06 07:05:48;;;;;;;10.47;8.10;;;13.90;99.90;;;;;;5075170;28;20197;-76
2022/10/06 07:08:19;;;;;;;12.63;8.87;;;13.80;99.90;;;;;;5075163;28;20197;-76
2022/10/06 07:10:47;;;;;;;18.33;8.33;;;13.80;99.90;;;;;;5074911;28;20287;-76
2022/10/06 07:13:15;;;;;;;13.70;9.33;;;13.80;99.90;;;;;;5074872;28;20298;-76
2022/10/06 07:26:43;;;;;;;10.57;7.90;;;13.40;99.90;;;;;;5074580;28;20668;-76
2022/10/06 07:29:10;;;;;;;8.90;5.93;;;13.40;99.90;;;;;;5074640;28;20683;-77
2022/10/06 07:31:37;;;;;;;7.40;5.27;;;13.30;99.90;;;;;;5074692;28;20196;-78
2022/10/06 07:34:05;;;;;;;5.70;4.53;;;13.30;99.90;;;;;;5074786;28;20200;-77
2022/10/06 07:36:32;;;;;;;8.87;4.30;;;13.30;99.90;;;;;;5074732;28;20193;-77
2022/10/06 07:39:00;;;;;;;5.93;4.23;;;13.30;99.90;;;;;;5074329;28;20633;-77
2022/10/06 07:41:28;;;;;;;5.93;4.30;;;13.30;99.90;;;;;;5074201;28;20710;-78
2022/10/06 07:43:55;;;;;;;5.47;4.00;;;13.30;99.90;;;;;;5073949;28;20619;-77
2022/10/06 07:46:22;;;;;;;8.07;4.00;;;13.20;99.90;;;;;;5074296;28;20197;-78
2022/10/06 07:48:48;;;;;;;4.90;4.23;;;13.20;99.90;;;;;;5074362;28;20193;-78
2022/10/06 07:51:17;;;;;;;6.47;3.83;;;13.20;99.90;;;;;;5074327;28;20205;-77
2022/10/06 07:53:45;;;;;;;5.73;4.20;;;13.20;99.90;;;;;;5074301;28;20255;-77
2022/10/06 07:56:14;;;;;;;6.10;4.57;;;13.30;99.90;;;;;;5074117;28;20208;-77
2022/10/06 07:58:43;;;;;;;5.60;4.63;;;13.20;99.90;;;;;;5073999;28;20197;-78
2022/10/06 08:01:11;;;;;;;5.00;4.13;;;13.20;99.90;;;;;;5074180;28;20201;-77
2022/10/06 08:03:39;;;;;;;5.40;4.37;;;13.30;99.90;;;;;;5073841;28;20200;-76
2022/10/06 08:06:11;;;;;;;5.33;4.83;;;13.30;99.90;;;;;;5073916;28;20251;-76
2022/10/06 08:08:38;;;;;;;5.07;4.63;;;13.30;99.90;;;;;;5073931;28;20205;-76
2022/10/06 08:11:07;;;;;;;5.20;4.27;;;13.40;99.90;;;;;;5073620;28;20277;-76
2022/10/06 08:13:37;;;;;;;5.33;4.70;;;13.50;99.90;;;;;;5073353;28;20225;-76
2022/10/06 08:16:04;;;;;;;5.40;4.77;;;13.60;99.90;;;;;;5073743;28;20201;-76
2022/10/06 08:18:31;;;;;;;5.27;4.70;;;13.80;99.90;;;;;;5073661;28;20595;-75
2022/10/06 08:20:58;;;;;;;6.30;4.90;;;13.90;99.90;;;;;;5073566;28;20208;-77
2022/10/06 08:23:25;;;;;;;4.30;3.90;;;14.00;99.90;;;;;;5073362;28;20207;-76
2022/10/06 08:25:55;;;;;;;6.60;4.20;;;14.10;99.90;;;;;;5073366;28;20200;-78
2022/10/06 08:28:23;;;;;;;5.70;4.43;;;14.50;99.90;;;;;;5073348;28;20667;-78
2022/10/06 08:30:51;;;;;;;3.73;3.43;;;14.70;99.90;;;;;;5073419;28;20197;-78
2022/10/06 08:33:18;;;;;;;4.37;3.67;;;14.90;99.90;;;;;;5073266;28;20227;-78
2022/10/06 08:35:45;;;;;;;4.23;3.30;;;15.10;99.90;;;;;;5073191;28;20288;-78
2022/10/06 08:38:13;;;;;;;3.80;3.40;;;15.00;99.90;;;;;;5073125;28;20201;-78
2022/10/06 08:40:42;;;;;;;4.67;2.60;;;15.10;99.90;;;;;;5072998;28;20204;-78
2022/10/06 08:43:17;;;;;;;4.23;2.70;;;15.10;99.90;;;;;;5073351;28;20204;-78
2022/10/06 08:45:45;;;;;;;3.57;2.87;;;15.10;99.90;;;;;;5073158;28;20285;-78
2022/10/06 08:48:17;;;;;;;4.13;3.17;;;15.10;99.90;;;;;;5073039;28;20197;-78
2022/10/06 08:50:57;;;;;;;3.20;2.43;;;15.20;99.90;;;;;;5072993;28;20259;-78
2022/10/06 08:53:31;;;;;;;6.17;2.73;;;15.10;99.90;;;;;;5073153;28;20208;-77
2022/10/06 08:56:04;;;;;;;5.20;2.37;;;15.10;99.90;;;;;;5073017;28;20204;-77
2022/10/06 08:58:46;;;;;;;3.80;2.13;;;15.20;99.90;;;;;;5073003;28;20231;-77
2022/10/06 09:01:17;;;;;;;4.77;2.00;;;15.00;99.90;;;;;;5072397;28;20197;-79
2022/10/06 09:03:48;;;;;;;5.07;2.10;;;15.00;99.90;;;;;;5072785;28;20706;-76
2022/10/06 09:06:28;;;;;;;3.27;2.10;;;15.00;99.90;;;;;;5072986;28;20204;-77
2022/10/06 09:08:58;;;;;;;3.30;2.10;;;15.20;99.90;;;;;;5072786;28;20258;-77
2022/10/06 09:11:46;;;;;;;3.17;2.03;;;15.40;99.90;;;;;;5072773;28;20197;-77
2022/10/06 09:14:18;;;;;;;4.03;2.20;;;15.50;99.90;;;;;;5072760;28;20232;-77
2022/10/06 09:16:49;;;;;;;5.63;2.22;;;15.70;99.90;;;;;;5072862;28;20208;-77
2022/10/06 09:19:21;;;;;;;4.32;2.50;;;15.80;99.90;;;;;;5072628;28;20197;-77
2022/10/06 09:21:51;;;;;;;3.25;2.70;;;15.80;99.90;;;;;;5072713;28;20246;-77
2022/10/06 09:24:23;;;;;;;4.45;3.00;;;16.00;99.90;;;;;;5072618;28;20620;-77
2022/10/06 09:26:51;;;;;;;5.07;2.00;;;16.10;99.90;;;;;;5072992;28;20193;-77
2022/10/06 09:29:18;;;;;;;4.38;2.75;;;15.90;99.90;;;;;;5072598;28;20200;-77
2022/10/06 09:31:49;;;;;;;4.47;2.30;;;16.00;99.90;;;;;;5072635;28;20251;-77
2022/10/06 09:34:25;;;;;;;4.10;2.10;;;16.00;99.90;;;;;;5072555;28;20205;-77
2022/10/06 09:37:01;;;;;;;4.30;1.90;;;16.20;99.90;;;;;;5072565;28;20204;-77
2022/10/06 09:39:32;;;;;;;4.40;1.85;;;16.40;99.90;;;;;;5072585;28;20192;-77
2022/10/06 09:42:02;;;;;;;3.50;1.90;;;17.00;99.90;;;;;;5072525;28;20291;-77
2022/10/06 09:44:33;;;;;;;3.95;1.67;;;17.60;99.90;;;;;;5072274;28;20683;-77
2022/10/06 09:47:00;;;;;;;3.13;1.60;;;17.90;99.90;;;;;;5072428;28;20233;-76
2022/10/06 09:49:30;;;;;;;4.75;1.55;;;18.30;99.90;;;;;;5072290;28;20194;-77
2022/10/06 09:52:13;;;;;;;2.42;1.50;;;18.30;99.90;;;;;;5072543;28;20208;-77
2022/10/06 09:54:42;;;;;;;6.05;1.50;;;19.10;99.90;;;;;;5072340;28;20201;-78
2022/10/06 09:57:14;;;;;;;4.00;1.60;;;18.80;99.90;;;;;;5072425;28;20239;-78
2022/10/06 09:59:43;;;;;;;5.60;1.73;;;18.90;99.90;;;;;;5072432;28;20254;-78
2022/10/06 10:02:26;;;;;;;2.47;1.50;;;18.80;99.90;;;;;;5072232;28;20251;-78
2022/10/06 10:04:57;;;;;;;3.45;1.65;;;18.80;99.90;;;;;;5072399;28;20553;-78
2022/10/06 10:07:26;;;;;;;3.13;1.50;;;18.70;99.90;;;;;;5072228;28;20197;-77
2022/10/06 10:09:54;;;;;;;3.63;1.42;;;20.30;99.90;;;;;;5072075;28;20200;-77
2022/10/06 10:12:23;;;;;;;3.35;1.60;;;20.60;99.90;;;;;;5072526;28;20208;-77
2022/10/06 10:14:50;;;;;;;3.70;2.60;;;21.10;99.90;;;;;;5075653;28;20290;-78
2022/10/06 10:17:21;;;;;;;2.58;1.80;;;20.40;99.90;;;;;;5076086;28;20262;-78
2022/10/06 10:19:51;;;;;;;3.72;1.80;;;19.50;99.90;;;;;;5075787;28;20722;-77
2022/10/06 10:22:24;;;;;;;6.68;1.70;;;18.50;99.90;;;;;;5075931;28;20243;-77
2022/10/06 10:25:03;;;;;;;2.83;1.52;;;18.30;99.90;;;;;;5076059;28;20228;-77
2022/10/06 10:27:38;;;;;;;4.45;1.80;;;18.10;99.90;;;;;;5075720;28;20279;-77
2022/10/06 10:30:09;;;;;;;3.45;1.50;;;17.80;99.90;;;;;;5075769;28;20265;-77
2022/10/06 10:32:45;;;;;;;6.35;2.00;;;17.80;99.90;;;;;;5075602;28;20263;-77
2022/10/06 10:35:22;;;;;;;3.67;1.70;;;17.60;99.90;;;;;;5075527;28;20744;-77
2022/10/06 10:37:58;;;;;;;3.58;1.80;;;17.50;99.90;;;;;;5075435;28;20568;-77
2022/10/06 10:40:35;;;;;;;4.55;1.50;;;17.80;99.90;;;;;;5075510;28;20259;-77
2022/10/06 10:43:16;;;;;;;3.85;2.00;;;20.00;99.90;;;;;;5075510;28;20231;-77
2022/10/06 10:45:47;;;;;;;4.60;1.80;;;21.10;99.90;;;;;;5075467;28;20225;-78
2022/10/06 10:48:18;;;;;;;2.85;1.65;;;20.00;99.90;;;;;;5075544;28;20197;-78
2022/10/06 10:50:52;;;;;;;3.92;1.75;;;19.80;99.90;;;;;;5075278;28;20675;-78
2022/10/06 10:53:27;;;;;;;3.15;1.65;;;21.10;99.90;;;;;;5075297;28;20197;-78
2022/10/06 10:55:53;;;;;;;2.95;1.73;;;23.10;99.90;;;;;;5074822;28;20257;-77
2022/10/06 10:58:27;;;;;;;3.92;1.38;;;23.80;99.90;;;;;;5075341;28;20242;-78
2022/10/06 11:00:59;;;;;;;2.92;1.52;;;23.90;99.90;;;;;;5075160;28;20213;-78
2022/10/06 11:03:26;;;;;;;2.45;1.55;;;25.50;99.90;;;;;;5075018;28;20250;-78
2022/10/06 11:06:13;;;;;;;3.33;1.85;;;22.60;99.90;;;;;;5074625;28;20531;-78
2022/10/06 11:08:48;;;;;;;4.22;2.05;;;22.30;99.90;;;;;;5075197;28;20287;-78
2022/10/06 11:11:20;;;;;;;3.30;1.52;;;23.50;99.90;;;;;;5075130;28;20279;-78
2022/10/06 11:13:51;;;;;;;6.82;1.83;;;23.60;99.90;;;;;;5074723;28;20314;-78
2022/10/06 11:16:33;;;;;;;4.80;1.67;;;23.60;99.90;;;;;;5074811;28;20214;-78
2022/10/06 11:19:14;;;;;;;3.63;1.80;;;23.80;99.90;;;;;;5074698;28;20205;-78
2022/10/06 11:21:46;;;;;;;3.40;1.77;;;24.50;99.90;;;;;;5074883;28;20197;-78
2022/10/06 11:24:19;;;;;;;2.67;1.67;;;24.70;99.90;;;;;;5074294;28;20197;-78
2022/10/06 11:27:07;;;;;;;2.58;1.75;;;26.10;99.90;;;;;;5074470;28;20221;-78
2022/10/06 11:29:41;;;;;;;4.60;2.13;;;26.50;99.90;;;;;;5074876;28;20607;-77
2022/10/06 11:32:21;;;;;;;3.38;2.00;;;22.90;99.90;;;;;;5074514;28;20200;-78
2022/10/06 11:34:49;;;;;;;2.85;1.80;;;21.20;99.90;;;;;;5074447;28;20253;-78
2022/10/06 11:37:26;;;;;;;5.30;1.98;;;22.60;99.90;;;;;;5074416;28;20322;-78
2022/10/06 11:40:03;;;;;;;3.25;1.63;;;24.10;99.90;;;;;;5074466;28;20196;-78
2022/10/06 11:42:39;;;;;;;4.78;1.80;;;24.20;99.90;;;;;;5074132;28;20250;-78
2022/10/06 11:45:12;;;;;;;1.90;1.48;;;26.40;99.90;;;;;;5074259;28;20243;-78
2022/10/06 11:47:51;;;;;;;2.92;1.75;;;26.30;99.90;;;;;;5074320;28;20201;-78
2022/10/06 11:50:35;;;;;;;6.90;1.85;;;27.70;99.90;;;;;;5074421;28;20259;-78
2022/10/06 11:53:02;;;;;;;1.98;1.63;;;24.50;99.90;;;;;;5074231;28;20239;-78
2022/10/06 11:55:31;;;;;;;2.30;1.70;;;24.00;99.90;;;;;;5074119;28;20197;-78
2022/10/06 11:58:09;;;;;;;6.78;2.10;;;22.20;99.90;;;;;;5074060;28;20197;-78
2022/10/06 12:00:42;;;;;;;4.70;2.00;;;22.20;99.90;;;;;;5073810;28;20216;-78
2022/10/06 12:03:54;;;;;;;3.40;2.00;;;23.20;99.90;;;;;;5073846;28;20599;-76
2022/10/06 12:06:57;;;;;;;4.68;1.95;;;24.10;99.90;;;;;;5073816;28;20225;-79
2022/10/06 12:09:39;;;;;;;3.20;1.65;;;27.30;99.90;;;;;;5073865;28;20207;-78
2022/10/06 12:12:53;;;;;;;3.47;1.50;;;26.60;99.00;;;;;;5073930;28;20197;-78
2022/10/06 12:15:56;;;;;;;3.55;1.73;;;23.90;99.90;;;;;;5073442;28;20751;-78
2022/10/06 12:18:40;;;;;;;2.50;1.65;;;25.10;99.90;;;;;;5074708;28;20234;-77
2022/10/06 12:21:17;;;;;;;4.03;1.70;;;25.00;99.90;;;;;;5073607;28;20200;-77
2022/10/06 12:23:53;;;;;;;3.22;1.90;;;25.30;99.90;;;;;;5073501;28;20644;-76
2022/10/06 12:26:28;;;;;;;2.17;1.52;;;23.80;98.80;;;;;;5073526;28;20286;-78
2022/10/06 12:29:03;;;;;;;5.43;1.90;;;25.80;99.20;;;;;;5073876;28;20598;-79
2022/10/06 12:31:54;;;;;;;4.07;1.80;;;27.70;96.20;;;;;;5073684;28;20200;-77
2022/10/06 12:34:41;;;;;;;4.40;1.70;;;29.20;94.50;;;;;;5073587;28;20201;-78
2022/10/06 12:37:34;;;;;;;3.50;1.70;;;29.50;91.20;;;;;;5072745;28;20292;-78
2022/10/06 12:40:39;;;;;;;2.65;1.50;;;30.00;88.40;;;;;;5073549;28;20661;-78
2022/10/06 12:43:28;;;;;;;2.90;1.60;;;31.80;83.60;;;;;;5073206;28;20215;-78
2022/10/06 12:45:58;;;;;;;3.03;1.40;;;31.60;78.70;;;;;;5073704;28;20644;-77
2022/10/06 12:48:33;;;;;;;2.75;1.50;;;28.40;78.60;;;;;;5073090;28;20193;-78
2022/10/06 12:51:05;;;;;;;4.70;1.42;;;28.60;79.70;;;;;;5073367;28;20196;-77
2022/10/06 12:53:39;;;;;;;1.60;1.30;;;26.60;78.40;;;;;;5073140;28;20604;-77
2022/10/06 12:56:19;;;;;;;3.25;1.65;;;25.20;80.30;;;;;;5073117;28;20600;-78
2022/10/06 12:58:45;;;;;;;6.00;1.95;;;24.60;82.10;;;;;;5072852;28;20273;-78
2022/10/06 13:01:14;;;;;;;2.08;1.23;;;29.00;77.90;;;;;;5072935;28;20247;-78
2022/10/06 13:03:46;;;;;;;2.05;1.25;;;29.80;70.50;;;;;;5073051;28;20205;-78
2022/10/06 13:06:13;;;;;;;1.98;1.40;;;32.00;71.10;;;;;;5072681;28;20630;-78
2022/10/06 13:08:40;;;;;;;3.97;1.50;;;34.60;65.10;;;;;;5072731;28;20674;-78
2022/10/06 13:11:18;;;;;;;4.90;2.47;;;36.10;56.60;;;;;;5072764;28;20200;-78